Time;durP1;ratioP1;P1;durP2;ratioP2;P2;SDS_P1;SDS_P2;PMS_P1;PMS_P2;Temp;Humidity;BMP_temperature;BMP_pressure;BME280_temperature;BME280_humidity;BME280_pressure;Samples;Min_cycle;Max_cycle;Signal;HPM_P1;HPM_P2
2023/01/23 00:01:18;;;;;;;36.10;30.37;;;;;;;0.36;100.00;103355.47;5105894;27;20302;-85
2023/01/23 00:03:44;;;;;;;36.83;30.50;;;;;;;0.36;100.00;103357.28;5099254;28;20032;-85
2023/01/23 00:06:11;;;;;;;35.03;29.73;;;;;;;0.43;100.00;103348.84;5096737;28;20294;-85
2023/01/23 00:08:38;;;;;;;33.53;29.73;;;;;;;0.39;100.00;103344.63;5098549;28;20023;-85
2023/01/23 00:11:05;;;;;;;34.67;29.77;;;;;;;0.39;100.00;103341.09;5092277;28;20308;-85
2023/01/23 00:13:31;;;;;;;32.60;29.13;;;;;;;0.38;100.00;103337.59;5092360;28;20289;-85
2023/01/23 00:15:56;;;;;;;38.07;30.70;;;;;;;0.42;100.00;103339.13;5092414;28;20301;-85
2023/01/23 00:18:22;;;;;;;35.23;28.90;;;;;;;0.54;100.00;103336.72;5096899;28;20038;-85
2023/01/23 00:20:47;;;;;;;33.87;29.37;;;;;;;0.50;100.00;103346.69;5088221;28;20032;-85
2023/01/23 00:23:13;;;;;;;34.23;28.63;;;;;;;0.47;100.00;103345.06;5098564;28;20107;-85
2023/01/23 00:25:38;;;;;;;35.50;28.17;;;;;;;0.48;100.00;103340.59;5093043;28;20084;-85
2023/01/23 00:28:04;;;;;;;34.20;28.97;;;;;;;0.58;100.00;103348.97;5079725;28;20039;-86
2023/01/23 00:30:29;;;;;;;36.40;29.87;;;;;;;0.54;100.00;103342.06;5095247;28;20085;-85
2023/01/23 00:32:54;;;;;;;34.23;28.27;;;;;;;0.45;100.00;103354.97;5080072;28;20040;-85
2023/01/23 00:35:20;;;;;;;36.07;28.83;;;;;;;0.50;100.00;103363.59;5093996;28;20028;-85
2023/01/23 00:37:45;;;;;;;35.80;29.50;;;;;;;0.50;100.00;103360.03;5093501;28;20039;-85
2023/01/23 00:40:12;;;;;;;33.97;28.67;;;;;;;0.58;100.00;103365.81;5093038;28;20047;-85
2023/01/23 00:42:37;;;;;;;35.90;28.70;;;;;;;0.55;100.00;103374.00;5094978;28;20973;-85
2023/01/23 00:45:03;;;;;;;34.87;29.53;;;;;;;0.47;100.00;103373.56;5076543;28;20376;-86
2023/01/23 00:47:29;;;;;;;34.93;29.10;;;;;;;0.58;100.00;103370.31;5095605;28;20028;-85
2023/01/23 00:49:56;;;;;;;35.33;27.97;;;;;;;0.53;100.00;103361.69;5092438;28;20048;-85
2023/01/23 00:52:22;;;;;;;36.13;28.83;;;;;;;0.50;100.00;103358.25;5088712;28;20060;-85
2023/01/23 00:54:47;;;;;;;34.83;29.20;;;;;;;0.52;100.00;103366.16;5097439;28;20510;-85
2023/01/23 00:57:13;;;;;;;36.40;29.13;;;;;;;0.47;100.00;103360.22;5093447;28;20032;-85
2023/01/23 00:59:38;;;;;;;34.03;28.90;;;;;;;0.50;100.00;103360.91;5076758;28;20032;-91
2023/01/23 01:02:04;;;;;;;33.77;28.77;;;;;;;0.57;100.00;103368.56;5082804;28;20593;-90
2023/01/23 01:04:30;;;;;;;34.90;28.57;;;;;;;0.58;100.00;103364.97;5091298;28;20069;-90
2023/01/23 01:06:55;;;;;;;34.70;29.17;;;;;;;0.54;100.00;103361.59;5075278;28;20289;-85
2023/01/23 01:09:20;;;;;;;34.13;28.20;;;;;;;0.57;100.00;103361.44;5098217;28;20118;-86
2023/01/23 01:11:46;;;;;;;36.07;28.30;;;;;;;0.59;100.00;103366.69;5079327;28;20031;-85
2023/01/23 01:14:11;;;;;;;34.20;28.43;;;;;;;0.62;100.00;103367.38;5090720;28;20024;-85
2023/01/23 01:16:37;;;;;;;33.93;26.63;;;;;;;0.59;100.00;103367.53;5087497;28;20072;-86
2023/01/23 01:19:04;;;;;;;33.50;27.77;;;;;;;0.57;100.00;103357.91;5093247;28;20071;-85
2023/01/23 01:21:29;;;;;;;34.40;27.87;;;;;;;0.60;100.00;103365.72;5098074;28;20043;-85
2023/01/23 01:23:55;;;;;;;33.30;27.97;;;;;;;0.60;100.00;103363.94;5090294;28;20281;-85
2023/01/23 01:26:21;;;;;;;32.43;27.43;;;;;;;0.71;100.00;103371.34;5116865;28;20027;-86
2023/01/23 01:28:47;;;;;;;31.80;27.57;;;;;;;0.61;100.00;103368.34;5089094;28;20372;-85
2023/01/23 01:31:14;;;;;;;35.77;28.20;;;;;;;0.57;100.00;103381.91;5095891;28;20034;-86
2023/01/23 01:33:41;;;;;;;31.87;26.40;;;;;;;0.60;100.00;103387.94;5075898;28;20278;-85
2023/01/23 01:36:12;;;;;;;34.90;27.23;;;;;;;0.66;100.00;103389.41;5093469;28;20040;-85
2023/01/23 01:38:37;;;;;;;31.80;26.60;;;;;;;0.67;100.00;103383.16;5094022;28;20050;-85
2023/01/23 01:41:03;;;;;;;31.87;27.30;;;;;;;0.67;100.00;103386.66;5074132;28;20740;-85
2023/01/23 01:43:29;;;;;;;33.57;27.63;;;;;;;0.72;100.00;103381.09;5092524;28;20046;-86
2023/01/23 01:46:16;;;;;;;32.80;27.60;;;;;;;0.74;100.00;103392.53;5093619;28;21022;-85
2023/01/23 01:48:44;;;;;;;34.00;28.27;;;;;;;0.65;100.00;103393.03;5096534;28;20087;-86
2023/01/23 01:51:55;;;;;;;32.13;27.10;;;;;;;0.72;100.00;103386.44;5095207;28;20301;-85
2023/01/23 01:54:35;;;;;;;32.27;27.40;;;;;;;0.66;100.00;103382.25;5084144;28;20646;-85
2023/01/23 01:57:13;;;;;;;35.27;27.37;;;;;;;0.70;100.00;103379.44;5100816;28;20281;-86
2023/01/23 01:59:45;;;;;;;33.33;27.37;;;;;;;0.67;100.00;103380.47;5097989;28;20951;-86
2023/01/23 02:02:18;;;;;;;32.17;26.47;;;;;;;0.68;100.00;103382.22;5088222;28;21018;-86
2023/01/23 02:04:50;;;;;;;31.83;27.17;;;;;;;0.67;100.00;103386.66;5095635;28;20023;-86
2023/01/23 02:07:25;;;;;;;33.40;27.37;;;;;;;0.66;100.00;103384.09;5086194;28;20035;-86
2023/01/23 02:09:51;;;;;;;32.93;26.57;;;;;;;0.61;100.00;103373.69;5095295;28;20430;-85
2023/01/23 02:12:16;;;;;;;33.13;27.30;;;;;;;0.64;100.00;103375.28;5094625;28;20553;-86
2023/01/23 02:14:42;;;;;;;32.57;27.07;;;;;;;0.63;100.00;103378.94;5093866;28;20024;-85
2023/01/23 02:17:09;;;;;;;33.70;27.30;;;;;;;0.72;100.00;103386.44;5072230;28;20499;-85
2023/01/23 02:19:53;;;;;;;31.77;27.00;;;;;;;0.74;100.00;103386.34;5100105;28;20024;-86
2023/01/23 02:23:00;;;;;;;31.40;26.58;;;;;;;0.70;100.00;103387.47;5095080;28;20053;-86
2023/01/23 02:25:41;;;;;;;35.57;27.53;;;;;;;0.66;100.00;103378.75;5095018;28;20173;-85
2023/01/23 02:28:08;;;;;;;33.07;27.60;;;;;;;0.65;100.00;103377.00;5094683;28;20032;-85
2023/01/23 02:30:34;;;;;;;34.43;27.90;;;;;;;0.55;100.00;103381.16;5091536;28;20300;-86
2023/01/23 02:33:08;;;;;;;35.23;28.73;;;;;;;0.52;100.00;103379.50;5097423;28;20031;-85
2023/01/23 02:35:34;;;;;;;36.23;28.27;;;;;;;0.48;100.00;103380.63;5097248;28;20031;-90
2023/01/23 02:38:03;;;;;;;34.97;29.70;;;;;;;0.50;100.00;103386.72;5081774;28;20031;-91
2023/01/23 02:40:37;;;;;;;37.53;29.30;;;;;;;0.59;100.00;103388.03;5099419;28;20709;-90
2023/01/23 02:43:05;;;;;;;36.83;29.45;;;;;;;0.61;100.00;103381.69;5093911;28;20065;-91
2023/01/23 02:45:31;;;;;;;34.50;29.40;;;;;;;0.56;100.00;103382.84;5091452;28;20024;-91
2023/01/23 02:47:56;;;;;;;34.90;28.47;;;;;;;0.61;100.00;103378.13;5093482;28;20638;-91
2023/01/23 02:50:22;;;;;;;33.40;28.70;;;;;;;0.59;100.00;103382.72;5091830;28;20048;-90
2023/01/23 02:52:49;;;;;;;34.87;29.30;;;;;;;0.64;100.00;103385.97;5091859;28;20027;-91
2023/01/23 02:55:18;;;;;;;35.00;29.40;;;;;;;0.64;100.00;103380.63;5094264;28;20908;-90
2023/01/23 02:57:44;;;;;;;34.20;28.23;;;;;;;0.67;100.00;103376.00;5057648;28;20793;-91
2023/01/23 03:00:18;;;;;;;34.77;28.37;;;;;;;0.76;100.00;103384.44;5078910;28;20324;-91
2023/01/23 03:02:44;;;;;;;;;;;;;;;0.82;100.00;103384.97;5071640;28;20233;-91
2023/01/23 03:05:10;;;;;;;33.20;27.73;;;;;;;0.68;100.00;103387.53;5098767;28;19919;-91
2023/01/23 03:07:35;;;;;;;34.07;28.77;;;;;;;0.68;100.00;103387.53;5099913;28;20293;-91
2023/01/23 03:10:02;;;;;;;36.53;29.80;;;;;;;0.74;100.00;103381.84;5092551;28;20118;-91
2023/01/23 03:12:27;;;;;;;36.03;29.63;;;;;;;0.66;100.00;103384.09;5094726;28;20058;-91
2023/01/23 03:14:54;;;;;;;38.60;30.73;;;;;;;0.55;100.00;103379.34;5095825;28;20044;-90
2023/01/23 03:17:21;;;;;;;35.27;29.30;;;;;;;0.63;100.00;103384.25;5093075;28;20024;-91
2023/01/23 03:19:46;;;;;;;36.80;30.20;;;;;;;0.58;100.00;103386.31;5080888;28;20394;-90
2023/01/23 03:22:12;;;;;;;35.93;30.40;;;;;;;0.64;100.00;103384.16;5094602;28;20024;-91
2023/01/23 03:24:38;;;;;;;38.10;31.13;;;;;;;0.66;100.00;103384.09;5080622;28;20031;-91
2023/01/23 03:27:03;;;;;;;36.40;31.20;;;;;;;0.64;100.00;103385.97;5084011;28;20031;-91
2023/01/23 03:32:14;;;;;;;36.13;29.67;;;;;;;0.65;100.00;103391.25;5099388;28;20043;-86
2023/01/23 03:34:40;;;;;;;38.33;31.23;;;;;;;0.65;100.00;103387.69;5080404;28;20031;-86
2023/01/23 03:37:09;;;;;;;41.10;31.03;;;;;;;0.67;100.00;103385.81;5098286;28;20028;-91
2023/01/23 03:42:19;;;;;;;38.15;31.70;;;;;;;0.64;100.00;103392.19;5093032;28;20039;-91
2023/01/23 03:44:45;;;;;;;39.73;31.13;;;;;;;0.64;100.00;103391.28;5091961;28;20471;-91
2023/01/23 03:47:10;;;;;;;38.27;31.10;;;;;;;0.60;100.00;103387.06;5086973;28;20031;-91
2023/01/23 03:49:36;;;;;;;38.53;31.00;;;;;;;0.65;100.00;103393.91;5096385;28;20047;-91
2023/01/23 03:52:01;;;;;;;36.50;31.20;;;;;;;0.67;100.00;103391.16;5075143;28;20039;-91
2023/01/23 03:54:27;;;;;;;42.97;31.87;;;;;;;0.65;100.00;103396.56;5092415;28;20055;-91
2023/01/23 03:56:53;;;;;;;41.03;31.30;;;;;;;0.70;100.00;103398.97;5073743;28;20099;-91
2023/01/23 03:59:18;;;;;;;38.33;31.90;;;;;;;0.66;100.00;103392.09;5099101;28;20020;-91
2023/01/23 04:01:43;;;;;;;40.70;30.80;;;;;;;0.66;100.00;103390.28;5062477;28;20031;-91
2023/01/23 04:04:09;;;;;;;39.90;31.50;;;;;;;0.67;100.00;103391.16;5094637;28;20024;-91
2023/01/23 04:06:34;;;;;;;41.30;31.97;;;;;;;0.67;100.00;103393.81;5087640;28;20034;-91
2023/01/23 04:09:00;;;;;;;38.33;31.10;;;;;;;0.69;100.00;103391.91;5092015;28;20715;-91
2023/01/23 04:11:25;;;;;;;40.03;32.93;;;;;;;0.68;100.00;103387.53;5075408;28;20101;-91
2023/01/23 04:13:52;;;;;;;40.27;32.17;;;;;;;0.69;100.00;103393.72;5090959;28;20077;-91
2023/01/23 04:16:18;;;;;;;41.13;31.87;;;;;;;0.78;100.00;103398.56;5096845;28;20050;-91
2023/01/23 04:18:43;;;;;;;43.83;32.33;;;;;;;0.76;100.00;103395.09;5094908;28;20106;-91
2023/01/23 04:21:09;;;;;;;40.73;32.43;;;;;;;0.72;100.00;103391.78;5093318;28;20032;-91
2023/01/23 04:23:35;;;;;;;40.77;32.53;;;;;;;0.77;100.00;103388.84;5088451;28;20077;-91
2023/01/23 04:26:00;;;;;;;39.13;31.53;;;;;;;0.72;100.00;103397.09;5088028;28;20390;-91
2023/01/23 04:28:25;;;;;;;40.87;32.00;;;;;;;0.76;100.00;103396.00;5092721;28;20038;-91
2023/01/23 04:30:52;;;;;;;39.23;31.87;;;;;;;0.77;100.00;103402.19;5076313;28;20020;-92
2023/01/23 04:33:18;;;;;;;40.27;32.27;;;;;;;0.75;100.00;103404.94;5093729;28;20110;-91
2023/01/23 04:36:00;;;;;;;38.27;31.40;;;;;;;0.83;100.00;103399.19;5072616;28;20035;-91
2023/01/23 04:38:28;;;;;;;39.20;32.03;;;;;;;0.77;100.00;103400.34;5071959;28;20130;-91
2023/01/23 04:40:54;;;;;;;43.13;33.20;;;;;;;0.79;100.00;103402.94;5088004;28;21802;-91
2023/01/23 04:43:19;;;;;;;44.37;33.23;;;;;;;0.76;100.00;103395.09;5087515;28;20869;-91
2023/01/23 04:45:45;;;;;;;39.50;31.87;;;;;;;0.76;100.00;103396.00;5098694;28;20023;-92
2023/01/23 04:48:12;;;;;;;39.70;32.07;;;;;;;0.75;100.00;103404.94;5092992;28;20023;-90
2023/01/23 04:50:38;;;;;;;38.80;31.70;;;;;;;0.76;100.00;103413.78;5073574;28;21020;-91
2023/01/23 04:53:04;;;;;;;39.77;32.27;;;;;;;0.71;100.00;103400.72;5075770;28;20082;-92
2023/01/23 04:55:29;;;;;;;41.00;32.97;;;;;;;0.66;100.00;103403.63;5071174;28;20031;-92
2023/01/23 04:57:55;;;;;;;40.47;32.63;;;;;;;0.70;100.00;103404.31;5070764;28;20029;-92
2023/01/23 05:00:20;;;;;;;41.30;32.53;;;;;;;0.76;100.00;103409.34;5078722;28;20036;-92
2023/01/23 05:02:46;;;;;;;42.03;33.17;;;;;;;0.74;100.00;103413.03;5077754;28;20082;-91
2023/01/23 05:05:12;;;;;;;40.53;32.90;;;;;;;0.70;100.00;103428.34;5054518;28;20114;-91
2023/01/23 05:07:38;;;;;;;39.10;31.83;;;;;;;0.79;100.00;103421.63;5058352;28;20050;-91
2023/01/23 05:10:04;;;;;;;38.10;32.23;;;;;;;0.76;100.00;103420.00;5080888;28;20495;-91
2023/01/23 05:12:30;;;;;;;42.00;32.47;;;;;;;0.77;100.00;103416.38;5062181;28;20028;-91
2023/01/23 05:14:55;;;;;;;39.13;33.03;;;;;;;0.81;100.00;103409.06;5047417;28;20028;-92
2023/01/23 05:17:20;;;;;;;40.77;32.97;;;;;;;0.82;100.00;103418.81;5066197;28;20482;-91
2023/01/23 05:19:46;;;;;;;42.90;34.33;;;;;;;0.79;100.00;103421.63;5073975;28;20028;-91
2023/01/23 05:22:12;;;;;;;40.27;33.33;;;;;;;0.86;100.00;103419.47;5059385;28;20024;-91
2023/01/23 05:24:37;;;;;;;38.67;31.77;;;;;;;0.75;100.00;103415.59;5062971;28;20032;-91
2023/01/23 05:27:03;;;;;;;44.43;33.70;;;;;;;0.79;100.00;103425.16;5061493;28;20020;-91
2023/01/23 05:29:28;;;;;;;40.77;32.77;;;;;;;0.74;100.00;103421.88;5063712;28;20032;-91
2023/01/23 05:31:53;;;;;;;41.13;32.10;;;;;;;0.78;100.00;103426.09;5076386;28;20176;-91
2023/01/23 05:34:19;;;;;;;43.33;33.17;;;;;;;0.76;100.00;103433.34;5055919;28;20037;-91
2023/01/23 05:36:44;;;;;;;40.60;34.07;;;;;;;0.78;100.00;103430.59;5068532;28;20077;-91
2023/01/23 05:39:10;;;;;;;39.90;32.93;;;;;;;0.81;100.00;103428.59;5078829;28;20104;-91
2023/01/23 05:41:35;;;;;;;40.37;33.77;;;;;;;0.81;100.00;103435.75;5079773;28;20492;-91
2023/01/23 05:44:00;;;;;;;42.20;32.27;;;;;;;0.85;100.00;103434.66;5075540;28;20048;-91
2023/01/23 05:46:26;;;;;;;40.03;33.30;;;;;;;0.90;100.00;103434.38;5055934;28;20117;-91
2023/01/23 05:48:52;;;;;;;39.67;31.50;;;;;;;0.85;100.00;103442.66;5068100;28;20059;-91
2023/01/23 05:51:17;;;;;;;40.53;32.47;;;;;;;0.81;100.00;103433.94;5082664;28;20039;-91
2023/01/23 05:53:43;;;;;;;41.77;33.50;;;;;;;0.85;100.00;103437.31;5084542;28;21817;-91
2023/01/23 05:56:08;;;;;;;40.40;32.37;;;;;;;0.88;100.00;103433.63;5102996;28;20140;-85
2023/01/23 05:58:34;;;;;;;39.80;31.97;;;;;;;0.81;100.00;103425.94;5084315;28;20030;-85
2023/01/23 06:01:04;;;;;;;41.30;32.57;;;;;;;0.89;100.00;103432.69;5093978;28;20628;-85
2023/01/23 06:03:30;;;;;;;40.87;32.80;;;;;;;0.85;100.00;103437.31;5086049;28;20028;-85
2023/01/23 06:05:55;;;;;;;39.43;32.50;;;;;;;0.88;100.00;103437.13;5083123;28;20015;-85
2023/01/23 06:08:20;;;;;;;43.00;32.57;;;;;;;0.81;100.00;103441.09;5095901;28;20542;-85
2023/01/23 06:10:46;;;;;;;39.83;32.90;;;;;;;0.82;100.00;103443.69;5096950;28;20028;-86
2023/01/23 06:13:12;;;;;;;43.97;33.43;;;;;;;0.89;100.00;103449.53;5078947;28;20457;-85
2023/01/23 06:15:37;;;;;;;42.53;33.53;;;;;;;0.86;100.00;103446.16;5092874;28;20032;-86
2023/01/23 06:18:03;;;;;;;40.90;32.87;;;;;;;0.82;100.00;103457.03;5092576;28;20970;-85
2023/01/23 06:20:28;;;;;;;40.60;32.87;;;;;;;0.88;100.00;103446.97;5095921;28;20089;-85
2023/01/23 06:22:54;;;;;;;39.97;32.73;;;;;;;0.91;100.00;103466.34;5090350;28;20114;-86
2023/01/23 06:25:20;;;;;;;38.33;30.60;;;;;;;0.88;100.00;103458.50;5087369;28;20077;-85
2023/01/23 06:27:46;;;;;;;39.83;32.83;;;;;;;0.89;100.00;103470.06;5097440;28;20084;-85
2023/01/23 06:30:12;;;;;;;40.37;33.10;;;;;;;0.87;100.00;103462.13;5096958;28;20032;-92
2023/01/23 06:32:37;;;;;;;36.83;31.90;;;;;;;0.91;100.00;103462.81;5062960;28;20041;-91
2023/01/23 06:35:03;;;;;;;36.17;31.07;;;;;;;0.91;100.00;103465.47;5065493;28;20035;-91
2023/01/23 06:37:29;;;;;;;39.80;31.80;;;;;;;0.91;100.00;103454.78;5085680;28;20026;-90
2023/01/23 06:39:54;;;;;;;37.23;30.47;;;;;;;0.97;100.00;103452.66;5081014;28;20020;-85
2023/01/23 06:42:20;;;;;;;38.33;31.33;;;;;;;0.99;100.00;103457.91;5094005;28;20262;-85
2023/01/23 06:44:46;;;;;;;35.67;30.97;;;;;;;0.97;100.00;103463.34;5096459;28;20016;-85
2023/01/23 06:47:11;;;;;;;37.57;30.10;;;;;;;0.97;100.00;103457.16;5094505;28;20067;-86
2023/01/23 06:49:36;;;;;;;34.30;30.17;;;;;;;1.01;100.00;103469.38;5094417;28;20048;-85
2023/01/23 06:52:02;;;;;;;36.37;30.60;;;;;;;1.01;100.00;103464.03;5078955;28;20035;-86
2023/01/23 06:54:27;;;;;;;35.87;30.23;;;;;;;1.01;100.00;103462.22;5097133;28;20486;-85
2023/01/23 06:56:53;;;;;;;36.30;30.50;;;;;;;1.03;100.00;103470.13;5088408;28;21823;-86
2023/01/23 06:59:18;;;;;;;33.93;29.63;;;;;;;1.03;100.00;103466.63;5057176;28;20032;-85
2023/01/23 07:01:44;;;;;;;34.27;29.00;;;;;;;1.05;100.00;103470.94;5076346;28;20366;-91
2023/01/23 07:04:09;;;;;;;38.20;30.40;;;;;;;1.06;100.00;103472.66;5086994;28;20020;-91
2023/01/23 07:06:34;;;;;;;34.90;30.30;;;;;;;1.10;100.00;103474.22;5092175;28;20032;-91
2023/01/23 07:09:00;;;;;;;35.70;29.67;;;;;;;1.07;100.00;103471.69;5071356;28;20032;-90
2023/01/23 07:11:25;;;;;;;36.13;30.30;;;;;;;1.05;100.00;103478.94;5092315;28;20035;-91
2023/01/23 07:13:51;;;;;;;33.23;29.63;;;;;;;1.11;100.00;103485.75;5065632;28;20027;-91
2023/01/23 07:16:16;;;;;;;34.77;30.77;;;;;;;1.08;100.00;103481.44;5097351;28;20099;-91
2023/01/23 07:18:42;;;;;;;35.07;29.67;;;;;;;1.07;100.00;103477.03;5082198;28;20030;-91
2023/01/23 07:21:08;;;;;;;33.17;29.20;;;;;;;1.10;100.00;103484.91;5098662;28;20132;-90
2023/01/23 07:23:34;;;;;;;36.03;30.37;;;;;;;1.01;100.00;103493.41;5098975;28;20498;-91
2023/01/23 07:26:02;;;;;;;34.37;29.07;;;;;;;1.05;100.00;103491.41;5094546;28;20038;-91
2023/01/23 07:28:27;;;;;;;34.83;30.03;;;;;;;1.06;100.00;103499.38;5098555;28;20054;-91
2023/01/23 07:30:53;;;;;;;34.33;29.97;;;;;;;1.10;100.00;103503.59;5080841;28;20974;-91
2023/01/23 07:33:18;;;;;;;33.53;29.57;;;;;;;1.10;100.00;103500.91;5098146;28;20528;-92
2023/01/23 07:35:43;;;;;;;34.00;29.37;;;;;;;1.10;100.00;103508.94;5095933;28;20028;-91
2023/01/23 07:38:09;;;;;;;36.83;30.93;;;;;;;1.03;100.00;103504.84;5078866;28;20036;-91
2023/01/23 07:40:37;;;;;;;37.07;30.60;;;;;;;1.07;100.00;103509.06;5078309;28;20076;-91
2023/01/23 07:43:03;;;;;;;36.10;30.43;;;;;;;1.10;100.00;103508.06;5074384;28;20036;-91
2023/01/23 07:45:29;;;;;;;34.43;29.37;;;;;;;1.06;100.00;103515.38;5077387;28;20131;-91
2023/01/23 07:47:54;;;;;;;34.87;29.37;;;;;;;1.09;100.00;103517.88;5085577;28;20118;-91
2023/01/23 07:50:19;;;;;;;33.17;29.03;;;;;;;1.13;100.00;103518.56;5094954;28;20055;-91
2023/01/23 07:52:45;;;;;;;33.93;28.83;;;;;;;1.12;100.00;103527.53;5067576;28;20051;-91
2023/01/23 07:55:10;;;;;;;33.77;28.80;;;;;;;1.12;100.00;103525.72;5101068;28;20048;-91
2023/01/23 07:57:36;;;;;;;33.90;29.10;;;;;;;1.17;100.00;103520.16;5093440;28;20923;-91
2023/01/23 08:00:02;;;;;;;33.90;29.47;;;;;;;1.16;100.00;103535.28;5082038;28;20384;-85
2023/01/23 08:02:28;;;;;;;35.43;29.73;;;;;;;1.18;100.00;103528.06;5100002;28;20027;-85
2023/01/23 08:04:54;;;;;;;33.37;29.63;;;;;;;1.17;100.00;103529.00;5081880;28;20027;-85
2023/01/23 08:07:19;;;;;;;35.63;29.70;;;;;;;1.22;100.00;103534.09;5097913;28;20064;-85
2023/01/23 08:09:45;;;;;;;33.30;29.47;;;;;;;1.21;100.00;103534.16;5082770;28;20044;-85
2023/01/23 08:12:11;;;;;;;32.93;29.20;;;;;;;1.21;100.00;103531.50;5086793;28;20867;-85
2023/01/23 08:14:38;;;;;;;34.20;29.30;;;;;;;1.26;100.00;103534.78;5098416;28;20034;-86
2023/01/23 08:17:04;;;;;;;33.17;28.50;;;;;;;1.24;100.00;103534.88;5090476;28;20034;-85
2023/01/23 08:19:29;;;;;;;33.53;28.47;;;;;;;1.26;100.00;103532.97;5083210;28;20028;-85
2023/01/23 08:21:54;;;;;;;33.10;29.30;;;;;;;1.27;100.00;103534.69;5069559;28;20023;-85
2023/01/23 08:24:20;;;;;;;32.13;28.43;;;;;;;1.31;100.00;103538.94;5091224;28;20021;-85
2023/01/23 08:26:45;;;;;;;34.07;29.13;;;;;;;1.33;100.00;103541.50;5078277;28;20039;-85
2023/01/23 08:29:11;;;;;;;32.90;28.23;;;;;;;1.32;100.00;103543.34;5093106;28;20066;-83
2023/01/23 08:31:38;;;;;;;33.63;29.07;;;;;;;1.38;100.00;103549.28;5095350;28;20026;-83
2023/01/23 08:34:04;;;;;;;33.00;29.13;;;;;;;1.39;100.00;103549.19;5091340;28;20107;-83
2023/01/23 08:36:29;;;;;;;34.07;29.23;;;;;;;1.39;100.00;103551.88;5076826;28;20102;-83
2023/01/23 08:38:55;;;;;;;32.50;28.23;;;;;;;1.41;100.00;103549.97;5068233;28;20119;-83
2023/01/23 08:41:22;;;;;;;33.37;28.63;;;;;;;1.41;100.00;103554.47;5099848;28;20089;-83
2023/01/23 08:43:47;;;;;;;31.17;27.80;;;;;;;1.40;100.00;103553.59;5093534;28;20022;-84
2023/01/23 08:46:13;;;;;;;31.30;27.90;;;;;;;1.45;100.00;103554.19;5089761;28;20016;-90
2023/01/23 08:48:38;;;;;;;32.13;27.80;;;;;;;1.47;100.00;103562.13;5084555;28;20131;-89
2023/01/23 08:51:07;;;;;;;31.93;28.57;;;;;;;1.50;100.00;103567.31;5089285;28;20051;-88
2023/01/23 08:53:33;;;;;;;30.83;27.53;;;;;;;1.51;100.00;103559.22;5091316;28;20112;-90
2023/01/23 08:56:06;;;;;;;30.87;27.10;;;;;;;1.53;100.00;103556.44;5092731;28;20039;-92
2023/01/23 08:58:31;;;;;;;32.80;27.43;;;;;;;1.57;100.00;103559.81;5092526;28;20115;-91
2023/01/23 09:00:57;;;;;;;29.83;26.63;;;;;;;1.58;100.00;103564.19;5079022;28;20448;-91
2023/01/23 09:03:22;;;;;;;32.90;26.27;;;;;;;1.61;100.00;103562.22;5087768;28;20035;-90
2023/01/23 09:05:48;;;;;;;30.87;26.57;;;;;;;1.62;100.00;103560.41;5094714;28;20110;-92
2023/01/23 09:08:13;;;;;;;30.40;25.93;;;;;;;1.62;100.00;103560.41;5095805;28;20036;-92
2023/01/23 09:10:39;;;;;;;30.33;26.63;;;;;;;1.68;100.00;103565.41;5100597;28;20028;-93
2023/01/23 09:13:04;;;;;;;29.67;25.67;;;;;;;1.73;100.00;103574.03;5079712;28;20106;-93
2023/01/23 09:15:30;;;;;;;31.30;26.47;;;;;;;1.74;100.00;103570.44;5089482;28;20020;-94
2023/01/23 09:17:56;;;;;;;30.23;25.83;;;;;;;1.76;100.00;103565.00;5098030;28;20020;-92
2023/01/23 09:20:24;;;;;;;30.10;25.37;;;;;;;1.75;100.00;103561.44;5094436;28;20499;-92
2023/01/23 09:22:50;;;;;;;32.67;26.37;;;;;;;1.77;100.00;103569.38;5093640;28;20048;-93
2023/01/23 09:25:15;;;;;;;30.37;25.30;;;;;;;1.76;100.00;103563.16;5088204;28;20032;-92
2023/01/23 09:27:41;;;;;;;31.20;25.50;;;;;;;1.81;100.00;103557.56;5090708;28;21970;-92
2023/01/23 09:30:07;;;;;;;33.63;25.87;;;;;;;1.87;100.00;103556.38;5074347;28;20032;-93
2023/01/23 09:32:32;;;;;;;32.23;26.20;;;;;;;1.83;100.00;103553.84;5076286;28;20032;-93
2023/01/23 09:34:57;;;;;;;30.27;25.30;;;;;;;1.86;100.00;103552.81;5074668;28;20119;-86
2023/01/23 09:37:23;;;;;;;31.03;24.77;;;;;;;1.88;100.00;103560.75;5091390;28;20085;-86
2023/01/23 09:39:48;;;;;;;31.03;25.13;;;;;;;1.94;100.00;103555.91;5098339;28;20039;-86
2023/01/23 09:42:22;;;;;;;29.90;25.17;;;;;;;1.98;100.00;103564.63;5092961;28;20032;-86
2023/01/23 09:44:53;;;;;;;30.55;25.92;;;;;;;1.95;100.00;103567.47;5092341;28;20016;-86
2023/01/23 09:47:33;;;;;;;29.43;25.17;;;;;;;2.00;100.00;103568.09;5089622;28;20051;-86
2023/01/23 09:50:06;;;;;;;29.03;24.23;;;;;;;2.08;100.00;103567.63;5095935;28;20079;-93
2023/01/23 09:52:45;;;;;;;30.67;25.93;;;;;;;2.14;100.00;103584.19;5091231;28;20024;-92
2023/01/23 09:55:16;;;;;;;30.37;24.77;;;;;;;2.18;100.00;103591.06;5090722;28;20048;-93
2023/01/23 09:57:53;;;;;;;27.83;23.63;;;;;;;2.19;100.00;103590.13;5107219;27;20035;-92
2023/01/23 10:00:26;;;;;;;26.40;22.57;;;;;;;2.07;100.00;103588.16;5095644;28;20508;-86
2023/01/23 10:02:53;;;;;;;27.97;23.83;;;;;;;2.15;100.00;103585.91;5093542;28;20019;-86
2023/01/23 10:05:31;;;;;;;30.33;23.20;;;;;;;2.13;100.00;103587.78;5098966;28;20031;-86
2023/01/23 10:08:06;;;;;;;25.73;22.70;;;;;;;2.20;100.00;103588.31;5097262;28;20047;-86
2023/01/23 10:10:54;;;;;;;27.17;23.08;;;;;;;2.30;100.00;103583.28;5096792;28;20036;-86
2023/01/23 10:13:44;;;;;;;27.90;23.03;;;;;;;2.31;100.00;103576.97;5091119;28;20397;-86
2023/01/23 10:16:24;;;;;;;26.33;22.20;;;;;;;2.31;100.00;103576.97;5096453;28;20032;-86
2023/01/23 10:19:12;;;;;;;26.80;21.50;;;;;;;2.27;100.00;103579.00;5099985;28;20031;-86
2023/01/23 10:21:54;;;;;;;25.70;21.87;;;;;;;2.34;100.00;103584.84;5096666;28;20031;-86
2023/01/23 10:24:46;;;;;;;26.77;22.73;;;;;;;2.35;100.00;103586.56;5091584;28;20118;-86
2023/01/23 10:27:19;;;;;;;27.43;23.07;;;;;;;2.35;100.00;103586.56;5092437;28;20028;-86
2023/01/23 10:29:57;;;;;;;25.97;21.97;;;;;;;2.35;100.00;103590.09;5094927;28;20103;-86
2023/01/23 10:32:29;;;;;;;26.27;21.90;;;;;;;2.35;100.00;103584.75;5096596;28;21760;-86
2023/01/23 10:35:04;;;;;;;25.80;21.60;;;;;;;2.38;100.00;103586.41;5093063;28;21887;-86
2023/01/23 10:37:45;;;;;;;25.27;21.67;;;;;;;2.45;100.00;103585.06;5097891;28;21869;-86
2023/01/23 10:41:12;;;;;;;25.47;21.50;;;;;;;2.39;100.00;103593.44;5094178;28;20097;-86
2023/01/23 10:43:01;;;;;;;24.60;21.67;;;;;;;2.43;100.00;103586.13;5094898;28;20908;-86
2023/01/23 10:45:27;;;;;;;24.30;20.47;;;;;;;2.41;100.00;103583.53;5097451;28;20108;-86
2023/01/23 10:47:53;;;;;;;23.97;21.23;;;;;;;2.44;100.00;103582.50;5099576;28;20027;-86
2023/01/23 10:50:34;;;;;;;24.93;21.20;;;;;;;2.49;100.00;103581.25;5092407;28;20051;-86
2023/01/23 10:53:09;;;;;;;24.70;21.50;;;;;;;2.47;100.00;103583.16;5093167;28;20511;-93
2023/01/23 10:55:35;;;;;;;24.93;21.07;;;;;;;2.47;100.00;103580.47;5096871;28;20348;-93
2023/01/23 10:58:02;;;;;;;25.10;20.93;;;;;;;2.53;100.00;103585.47;5073928;28;20107;-94
2023/01/23 11:00:33;;;;;;;24.43;20.80;;;;;;;2.53;100.00;103585.47;5097458;28;20051;-92
2023/01/23 11:03:20;;;;;;;25.23;21.90;;;;;;;2.58;100.00;103587.00;5090109;28;20497;-93
2023/01/23 11:06:15;;;;;;;26.83;21.90;;;;;;;2.50;100.00;103579.44;5091513;28;20447;-93
2023/01/23 11:08:56;;;;;;;25.27;22.00;;;;;;;2.52;100.00;103578.38;5081518;28;20039;-93
2023/01/23 11:11:29;;;;;;;25.90;22.50;;;;;;;2.55;100.00;103584.53;5091993;28;20051;-92
2023/01/23 11:14:09;;;;;;;25.83;21.50;;;;;;;2.57;100.00;103582.59;5100581;28;20528;-93
2023/01/23 11:16:35;;;;;;;25.77;21.77;;;;;;;2.59;100.00;103575.38;5099795;28;20031;-93
2023/01/23 11:19:14;;;;;;;25.53;21.63;;;;;;;2.60;100.00;103588.66;5096487;28;20040;-93